createdAt,value
2023-06-19T00:00:26.848Z,95704.25
2023-06-19T00:01:29.180Z,95694.84
2023-06-19T00:02:33.908Z,95700.00
2023-06-19T00:03:36.767Z,95697.00
2023-06-19T00:04:41.494Z,95699.50
2023-06-19T00:05:43.665Z,95703.97
2023-06-19T00:06:49.628Z,95704.47
2023-06-19T00:07:52.122Z,95699.84
2023-06-19T00:08:59.471Z,95707.09
2023-06-19T00:10:01.589Z,95711.56
2023-06-19T00:11:06.643Z,95713.22
2023-06-19T00:12:09.127Z,95704.13
2023-06-19T00:13:13.800Z,95712.41
2023-06-19T00:14:16.057Z,95712.72
2023-06-19T00:15:21.067Z,95719.03
2023-06-19T00:16:26.310Z,95712.25
2023-06-19T00:17:31.875Z,95713.72
2023-06-19T00:18:41.484Z,95710.25
2023-06-19T00:19:46.650Z,95714.22
2023-06-19T00:20:48.845Z,95714.69
2023-06-19T00:21:58.334Z,95709.06
2023-06-19T00:23:00.538Z,95707.09
2023-06-19T00:24:08.797Z,95704.47
2023-06-19T00:25:11.792Z,95707.59
2023-06-19T00:26:16.483Z,95709.06
2023-06-19T00:27:18.631Z,95708.09
2023-06-19T00:28:23.434Z,95703.81
2023-06-19T00:29:29.414Z,95702.66
2023-06-19T00:30:34.122Z,95706.09
2023-06-19T00:31:38.465Z,95706.13
2023-06-19T00:32:51.230Z,95699.16
2023-06-19T00:33:53.452Z,95706.09
2023-06-19T00:34:58.385Z,95699.81
2023-06-19T00:36:00.614Z,95699.13
2023-06-19T00:37:05.306Z,95707.03
2023-06-19T00:38:09.383Z,95703.38
2023-06-19T00:39:16.706Z,95705.34
2023-06-19T00:40:28.363Z,95702.06
2023-06-19T00:41:33.171Z,95704.50
2023-06-19T00:42:35.267Z,95705.97
2023-06-19T00:43:39.971Z,95709.41
2023-06-19T00:44:42.665Z,95708.53
2023-06-19T00:45:47.431Z,95714.63
2023-06-19T00:46:52.942Z,95705.69
2023-06-19T00:48:00.205Z,95706.69
2023-06-19T00:49:02.646Z,95709.78
2023-06-19T00:50:08.824Z,95709.97
2023-06-19T00:51:11.215Z,95713.75
2023-06-19T00:52:15.993Z,95706.56
2023-06-19T00:53:20.629Z,95708.72
2023-06-19T00:54:28.376Z,95712.13
2023-06-19T00:55:31.170Z,95712.56
2023-06-19T00:56:36.462Z,95715.84
2023-06-19T00:57:40.815Z,95718.28
2023-06-19T00:58:45.622Z,95713.47
2023-06-19T00:59:47.959Z,95716.97
2023-06-19T01:01:07.483Z,95722.06
2023-06-19T01:02:13.691Z,95718.38
2023-06-19T01:03:17.796Z,95725.09
2023-06-19T01:04:23.627Z,95722.94
2023-06-19T01:05:26.663Z,95722.41
2023-06-19T01:06:39.600Z,95725.34
2023-06-19T01:07:47.422Z,95726.47
2023-06-19T01:09:00.160Z,95723.34
2023-06-19T01:10:09.052Z,95725.44
2023-06-19T01:11:26.049Z,95726.72
2023-06-19T01:12:36.465Z,95724.41
2023-06-19T01:13:46.841Z,95728.34
2023-06-19T01:14:56.905Z,95725.84
2023-06-19T01:16:03.584Z,95727.47
2023-06-19T01:17:07.720Z,95727.66
2023-06-19T01:18:14.150Z,95725.84
2023-06-19T01:19:21.077Z,95726.00
2023-06-19T01:20:26.273Z,95735.38
2023-06-19T01:21:28.556Z,95728.97
2023-06-19T01:22:36.098Z,95728.69
2023-06-19T01:23:38.247Z,95719.50
2023-06-19T01:24:43.006Z,95716.72
2023-06-19T01:25:45.192Z,95729.72
2023-06-19T01:26:49.974Z,95727.78
2023-06-19T01:27:52.627Z,95725.81
2023-06-19T01:28:58.608Z,95732.28
2023-06-19T01:30:01.361Z,95735.59
2023-06-19T01:31:06.971Z,95729.88
2023-06-19T01:32:15.006Z,95727.91
2023-06-19T01:33:24.515Z,95728.47
2023-06-19T01:34:28.557Z,95732.63
2023-06-19T01:35:36.838Z,95730.81
2023-06-19T01:36:39.125Z,95736.06
2023-06-19T01:37:47.435Z,95733.25
2023-06-19T01:38:50.654Z,95741.19
2023-06-19T01:39:56.349Z,95733.94
2023-06-19T01:41:00.701Z,95740.28
2023-06-19T01:42:06.679Z,95746.19
2023-06-19T01:43:09.569Z,95744.25
2023-06-19T01:44:14.729Z,95748.25
2023-06-19T01:45:17.032Z,95739.25
2023-06-19T01:46:21.999Z,95742.69
2023-06-19T01:47:24.327Z,95749.78
2023-06-19T01:48:29.236Z,95749.78
2023-06-19T01:49:31.370Z,95745.72
2023-06-19T01:50:36.029Z,95754.53
2023-06-19T01:51:38.222Z,95750.56
2023-06-19T01:52:42.994Z,95753.88
2023-06-19T01:53:47.674Z,95756.66
2023-06-19T01:54:52.382Z,95764.94
2023-06-19T01:55:54.634Z,95769.28
2023-06-19T01:57:00.775Z,95768.31
2023-06-19T01:58:02.928Z,95768.63
2023-06-19T01:59:07.645Z,95776.69
2023-06-19T02:00:11.640Z,95774.78
2023-06-19T02:01:16.362Z,95777.88
2023-06-19T02:02:18.512Z,95775.22
2023-06-19T02:03:23.334Z,95769.34
2023-06-19T02:04:25.565Z,95779.59
2023-06-19T02:05:30.252Z,95777.63
2023-06-19T02:06:32.602Z,95781.91
2023-06-19T02:07:37.373Z,95777.94
2023-06-19T02:08:39.484Z,95777.31
2023-06-19T02:09:46.746Z,95774.38
2023-06-19T02:10:49.103Z,95783.63
2023-06-19T02:11:53.960Z,95787.59
2023-06-19T02:12:56.085Z,95779.69
2023-06-19T02:14:00.771Z,95785.97
2023-06-19T02:15:03.051Z,95786.44
2023-06-19T02:16:08.246Z,95792.19
2023-06-19T02:17:10.463Z,95791.56
2023-06-19T02:18:15.126Z,95789.22
2023-06-19T02:19:17.362Z,95786.06
2023-06-19T02:20:22.194Z,95785.41
2023-06-19T02:21:24.611Z,95781.91
2023-06-19T02:22:29.360Z,95779.28
2023-06-19T02:23:31.554Z,95783.28
2023-06-19T02:24:38.451Z,95780.28
2023-06-19T02:25:43.738Z,95781.59
2023-06-19T02:26:48.519Z,95780.22
2023-06-19T02:27:50.632Z,95774.81
2023-06-19T02:28:55.563Z,95776.91
2023-06-19T02:29:57.634Z,95780.56
2023-06-19T02:31:02.296Z,95783.34
2023-06-19T02:32:04.888Z,95785.66
2023-06-19T02:33:09.844Z,95785.28
2023-06-19T02:34:11.990Z,95782.44
2023-06-19T02:35:16.944Z,95784.06
2023-06-19T02:36:20.874Z,95787.34
2023-06-19T02:37:25.632Z,95790.44
2023-06-19T02:38:28.233Z,95784.75
2023-06-19T02:39:33.554Z,95788.38
2023-06-19T02:40:35.678Z,95782.38
2023-06-19T02:41:46.962Z,95780.97
2023-06-19T02:42:49.060Z,95790.34
2023-06-19T02:43:53.793Z,95783.56
2023-06-19T02:44:55.913Z,95790.22
2023-06-19T02:46:00.650Z,95784.94
2023-06-19T02:47:02.833Z,95790.84
2023-06-19T02:48:08.598Z,95794.75
2023-06-19T02:49:10.708Z,95791.97
2023-06-19T02:50:15.446Z,95789.47
2023-06-19T02:51:17.637Z,95789.91
2023-06-19T02:52:22.635Z,95794.00
2023-06-19T02:53:24.708Z,95796.44
2023-06-19T02:54:29.404Z,95784.69
2023-06-19T02:55:31.504Z,95786.66
2023-06-19T02:56:36.216Z,95790.28
2023-06-19T02:57:40.862Z,95785.50
2023-06-19T02:58:45.571Z,95792.28
2023-06-19T02:59:50.143Z,95795.63
2023-06-19T03:00:55.020Z,95796.06
2023-06-19T03:01:57.211Z,95792.41
2023-06-19T03:03:01.914Z,95785.06
2023-06-19T03:04:04.416Z,95799.19
2023-06-19T03:05:10.048Z,95790.66
2023-06-19T03:06:12.192Z,95792.47
2023-06-19T03:07:17.999Z,95791.41
2023-06-19T03:08:20.193Z,95798.88
2023-06-19T03:09:24.876Z,95796.25
2023-06-19T03:10:27.374Z,95794.03
2023-06-19T03:11:32.168Z,95794.50
2023-06-19T03:12:34.277Z,95803.72
2023-06-19T03:13:49.649Z,95796.78
2023-06-19T03:14:51.776Z,95803.63
2023-06-19T03:15:56.509Z,95802.00
2023-06-19T03:16:58.747Z,95807.91
2023-06-19T03:18:05.785Z,95797.69
2023-06-19T03:19:07.950Z,95801.91
2023-06-19T03:20:14.094Z,95803.03
2023-06-19T03:21:17.209Z,95808.06
2023-06-19T03:22:23.380Z,95803.41
2023-06-19T03:23:25.485Z,95803.69
2023-06-19T03:24:30.189Z,95809.25
2023-06-19T03:25:36.297Z,95807.56
2023-06-19T03:26:41.122Z,95809.50
2023-06-19T03:27:43.258Z,95807.31
2023-06-19T03:28:50.942Z,95808.56
2023-06-19T03:29:53.144Z,95811.50
2023-06-19T03:30:58.409Z,95817.06
2023-06-19T03:32:00.577Z,95816.56
2023-06-19T03:33:05.341Z,95818.50
2023-06-19T03:34:07.574Z,95819.63
2023-06-19T03:35:12.875Z,95814.66
2023-06-19T03:36:17.595Z,95823.53
2023-06-19T03:37:19.703Z,95813.97
2023-06-19T03:38:24.520Z,95828.34
2023-06-19T03:39:26.639Z,95824.00
2023-06-19T03:40:32.415Z,95823.56
2023-06-19T03:41:34.731Z,95822.69
2023-06-19T03:42:39.504Z,95825.06
2023-06-19T03:43:41.622Z,95827.31
2023-06-19T03:44:48.888Z,95837.47
2023-06-19T03:45:51.062Z,95826.41
2023-06-19T03:46:55.870Z,95822.25
2023-06-19T03:47:58.034Z,95833.09
2023-06-19T03:49:03.981Z,95829.75
2023-06-19T03:50:20.911Z,95833.25
2023-06-19T03:51:26.487Z,95840.16
2023-06-19T03:52:28.796Z,95839.34
2023-06-19T03:53:33.487Z,95841.97
2023-06-19T03:54:35.563Z,95837.97
2023-06-19T03:55:40.321Z,95839.94
2023-06-19T03:56:42.441Z,95838.44
2023-06-19T03:57:47.214Z,95831.06
2023-06-19T03:58:49.346Z,95841.44
2023-06-19T03:59:56.826Z,95842.41
2023-06-19T04:00:58.908Z,95841.06
2023-06-19T04:02:04.936Z,95843.84
2023-06-19T04:03:07.158Z,95841.34
2023-06-19T04:04:11.926Z,95844.94
2023-06-19T04:05:14.954Z,95846.91
2023-06-19T04:06:19.681Z,95843.03
2023-06-19T04:07:21.850Z,95846.97
2023-06-19T04:08:26.532Z,95843.03
2023-06-19T04:09:28.887Z,95850.00
2023-06-19T04:10:35.292Z,95847.06
2023-06-19T04:11:38.214Z,95850.75
2023-06-19T04:12:43.869Z,95853.31
2023-06-19T04:13:46.034Z,95852.22
2023-06-19T04:14:50.777Z,95853.97
2023-06-19T04:15:55.519Z,95860.22
2023-06-19T04:17:00.233Z,95857.19
2023-06-19T04:18:02.496Z,95860.81
2023-06-19T04:19:07.279Z,95859.84
2023-06-19T04:20:12.679Z,95862.16
2023-06-19T04:21:18.455Z,95861.47
2023-06-19T04:22:20.608Z,95865.22
2023-06-19T04:23:25.325Z,95868.31
2023-06-19T04:24:27.543Z,95862.06
2023-06-19T04:25:32.308Z,95866.63
2023-06-19T04:26:34.430Z,95866.75
2023-06-19T04:27:39.183Z,95857.72
2023-06-19T04:28:41.424Z,95860.81
2023-06-19T04:29:46.156Z,95863.16
2023-06-19T04:30:48.306Z,95863.44
2023-06-19T04:31:55.992Z,95869.66
2023-06-19T04:32:58.739Z,95862.28
2023-06-19T04:34:05.918Z,95865.72
2023-06-19T04:35:09.161Z,95868.38
2023-06-19T04:36:14.015Z,95866.00
2023-06-19T04:37:20.284Z,95870.66
2023-06-19T04:38:25.982Z,95879.94
2023-06-19T04:39:28.093Z,95875.34
2023-06-19T04:40:33.581Z,95876.03
2023-06-19T04:41:39.666Z,95877.47
2023-06-19T04:42:41.810Z,95877.00
2023-06-19T04:43:46.661Z,95881.16
2023-06-19T04:44:49.286Z,95873.63
2023-06-19T04:45:54.827Z,95872.09
2023-06-19T04:47:02.356Z,95882.75
2023-06-19T04:48:07.773Z,95884.00
2023-06-19T04:49:10.519Z,95884.44
2023-06-19T04:50:16.917Z,95888.75
2023-06-19T04:51:22.221Z,95889.78
2023-06-19T04:52:27.155Z,95881.00
2023-06-19T04:53:29.343Z,95876.66
2023-06-19T04:54:34.736Z,95889.63
2023-06-19T04:55:36.891Z,95878.91
2023-06-19T04:56:41.724Z,95883.13
2023-06-19T04:57:43.801Z,95884.47
2023-06-19T04:58:50.305Z,95882.53
2023-06-19T04:59:52.430Z,95882.53
2023-06-19T05:00:57.143Z,95887.19
2023-06-19T05:02:01.864Z,95888.00
2023-06-19T05:03:06.888Z,95889.53
2023-06-19T05:04:09.090Z,95883.28
2023-06-19T05:05:14.013Z,95892.94
2023-06-19T05:06:16.196Z,95884.41
2023-06-19T05:07:20.991Z,95890.97
2023-06-19T05:08:25.662Z,95892.94
2023-06-19T05:09:27.848Z,95903.47
2023-06-19T05:10:32.504Z,95906.50
2023-06-19T05:11:34.636Z,95902.66
2023-06-19T05:12:39.555Z,95898.72
2023-06-19T05:13:41.727Z,95900.41
2023-06-19T05:14:46.354Z,95889.97
2023-06-19T05:15:49.915Z,95901.44
2023-06-19T05:16:54.757Z,95896.31
2023-06-19T05:17:59.532Z,95894.50
2023-06-19T05:19:04.459Z,95895.03
2023-06-19T05:20:08.639Z,95892.38
2023-06-19T05:21:13.937Z,95895.63
2023-06-19T05:22:16.153Z,95891.69
2023-06-19T05:23:20.829Z,95894.41
2023-06-19T05:24:22.995Z,95892.75
2023-06-19T05:25:28.889Z,95888.16
2023-06-19T05:26:31.068Z,95886.50
2023-06-19T05:27:35.743Z,95894.47
2023-06-19T05:28:37.836Z,95893.75
2023-06-19T05:29:42.937Z,95898.41
2023-06-19T05:30:46.254Z,95893.38
2023-06-19T05:31:51.583Z,95889.38
2023-06-19T05:32:54.212Z,95890.88
2023-06-19T05:34:02.672Z,95890.75
2023-06-19T05:35:06.032Z,95897.91
2023-06-19T05:36:11.370Z,95903.16
2023-06-19T05:37:13.902Z,95902.78
2023-06-19T05:38:18.891Z,95896.59
2023-06-19T05:39:21.206Z,95903.78
2023-06-19T05:40:26.569Z,95909.13
2023-06-19T05:41:28.990Z,95914.69
2023-06-19T05:42:34.289Z,95902.19
2023-06-19T05:43:36.919Z,95912.56
2023-06-19T05:44:42.533Z,95909.59
2023-06-19T05:45:45.119Z,95902.25
2023-06-19T05:46:50.558Z,95910.56
2023-06-19T05:47:53.007Z,95898.88
2023-06-19T05:48:59.128Z,95905.28
2023-06-19T05:50:04.629Z,95903.78
2023-06-19T05:51:09.898Z,95904.34
2023-06-19T05:52:12.619Z,95907.00
2023-06-19T05:53:17.758Z,95904.00
2023-06-19T05:54:22.975Z,95908.47
2023-06-19T05:55:26.370Z,95909.78
2023-06-19T05:56:31.872Z,95911.84
2023-06-19T05:57:35.102Z,95918.56
2023-06-19T05:58:40.676Z,95919.66
2023-06-19T05:59:43.504Z,95919.09
2023-06-19T06:00:48.806Z,95927.19
2023-06-19T06:01:52.180Z,95923.75
2023-06-19T06:02:57.975Z,95920.84
2023-06-19T06:04:03.050Z,95922.09
2023-06-19T06:05:12.989Z,95916.94
2023-06-19T06:06:18.383Z,95912.72
2023-06-19T06:07:21.103Z,95916.41
2023-06-19T06:08:26.426Z,95914.72
2023-06-19T06:09:29.224Z,95915.44
2023-06-19T06:10:34.526Z,95920.13
2023-06-19T06:11:37.019Z,95921.47
2023-06-19T06:12:42.444Z,95924.06
2023-06-19T06:13:44.821Z,95923.78
2023-06-19T06:14:49.944Z,95925.13
2023-06-19T06:15:52.383Z,95933.03
2023-06-19T06:16:57.881Z,95929.28
2023-06-19T06:18:00.666Z,95930.94
2023-06-19T06:19:05.611Z,95933.53
2023-06-19T06:20:13.867Z,95932.84
2023-06-19T06:21:18.882Z,95936.69
2023-06-19T06:22:21.175Z,95933.72
2023-06-19T06:23:26.273Z,95943.44
2023-06-19T06:24:28.718Z,95939.38
2023-06-19T06:25:34.009Z,95945.66
2023-06-19T06:26:37.008Z,95946.03
2023-06-19T06:27:42.033Z,95947.38
2023-06-19T06:28:45.021Z,95944.19
2023-06-19T06:29:50.118Z,95943.31
2023-06-19T06:30:54.982Z,95943.19
2023-06-19T06:32:08.875Z,95945.84
2023-06-19T06:33:11.292Z,95942.16
2023-06-19T06:34:16.180Z,95938.88
2023-06-19T06:35:21.376Z,95945.97
2023-06-19T06:36:36.127Z,95940.25
2023-06-19T06:37:43.152Z,95943.06
2023-06-19T06:38:45.404Z,95935.28
2023-06-19T06:39:50.480Z,95944.72
2023-06-19T06:40:55.436Z,95946.69
2023-06-19T06:41:57.880Z,95949.59
2023-06-19T06:43:02.961Z,95952.06
2023-06-19T06:44:06.953Z,95955.03
2023-06-19T06:45:12.603Z,95954.31
2023-06-19T06:46:15.937Z,95958.59
2023-06-19T06:47:20.867Z,95950.13
2023-06-19T06:48:25.964Z,95953.16
2023-06-19T06:50:36.512Z,95949.94
2023-06-19T06:51:41.878Z,95954.41
2023-06-19T06:52:46.779Z,95958.69
2023-06-19T06:53:49.157Z,95959.13
2023-06-19T06:54:54.615Z,95966.81
2023-06-19T06:55:57.136Z,95962.34
2023-06-19T06:57:02.226Z,95957.41
2023-06-19T06:58:07.153Z,95961.34
2023-06-19T06:59:09.565Z,95963.00
2023-06-19T07:00:16.218Z,95957.88
2023-06-19T07:01:21.448Z,95953.91
2023-06-19T07:02:23.851Z,95965.50
2023-06-19T07:03:31.358Z,95959.91
2023-06-19T07:04:33.851Z,95957.72
2023-06-19T07:05:41.603Z,95951.94
2023-06-19T07:06:43.789Z,95961.88
2023-06-19T07:07:48.753Z,95954.25
2023-06-19T07:08:51.058Z,95960.84
2023-06-19T07:09:56.019Z,95962.50
2023-06-19T07:10:58.423Z,95960.03
2023-06-19T07:12:05.589Z,95966.19
2023-06-19T07:13:08.024Z,95964.00
2023-06-19T07:14:13.332Z,95957.56
2023-06-19T07:15:16.373Z,95965.75
2023-06-19T07:16:21.332Z,95972.88
2023-06-19T07:17:24.366Z,95972.09
2023-06-19T07:18:29.501Z,95971.13
2023-06-19T07:19:34.656Z,95969.16
2023-06-19T07:20:39.525Z,95972.94
2023-06-19T07:21:44.755Z,95976.09
2023-06-19T07:22:47.476Z,95980.41
2023-06-19T07:23:52.835Z,95966.16
2023-06-19T07:24:58.087Z,95969.81
2023-06-19T07:26:00.536Z,95978.75
2023-06-19T07:27:05.697Z,95978.44
2023-06-19T07:28:10.871Z,95978.78
2023-06-19T07:29:13.356Z,95981.22
2023-06-19T07:30:18.488Z,95977.06
2023-06-19T07:31:23.497Z,95989.00
2023-06-19T07:32:28.560Z,95983.97
2023-06-19T07:33:31.178Z,95979.31
2023-06-19T07:34:36.122Z,95978.97
2023-06-19T07:35:41.337Z,95982.63
2023-06-19T07:36:46.427Z,95986.78
2023-06-19T07:37:48.859Z,95983.53
2023-06-19T07:38:54.068Z,95975.75
2023-06-19T07:39:59.329Z,95984.72
2023-06-19T07:41:01.817Z,95981.38
2023-06-19T07:42:07.380Z,95978.91
2023-06-19T07:43:09.925Z,95985.53
2023-06-19T07:44:14.819Z,95985.69
2023-06-19T07:45:20.209Z,95975.59
2023-06-19T07:46:22.744Z,95972.13
2023-06-19T07:47:28.020Z,95974.78
2023-06-19T07:48:30.660Z,95971.31
2023-06-19T07:49:35.865Z,95970.16
2023-06-19T07:50:41.165Z,95971.13
2023-06-19T07:51:46.224Z,95967.19
2023-06-19T07:52:48.645Z,95969.97
2023-06-19T07:53:53.441Z,95972.81
2023-06-19T07:54:59.813Z,95962.50
2023-06-19T07:56:04.872Z,95963.09
2023-06-19T07:57:07.802Z,95966.63
2023-06-19T07:58:13.026Z,95961.31
2023-06-19T07:59:18.224Z,95964.50
2023-06-19T08:00:20.887Z,95960.41
2023-06-19T08:01:25.962Z,95973.38
2023-06-19T08:02:29.219Z,95965.78
2023-06-19T08:03:34.534Z,95963.16
2023-06-19T08:04:37.553Z,95962.91
2023-06-19T08:05:45.339Z,95968.00
2023-06-19T08:06:47.786Z,95962.75
2023-06-19T08:07:52.800Z,95970.88
2023-06-19T08:08:55.233Z,95973.09
2023-06-19T08:10:12.412Z,95975.56
2023-06-19T08:11:18.895Z,95957.44
2023-06-19T08:12:21.363Z,95969.44
2023-06-19T08:13:26.445Z,95973.00
2023-06-19T08:14:28.828Z,95967.09
2023-06-19T08:15:33.760Z,95969.69
2023-06-19T08:16:38.920Z,95974.44
2023-06-19T08:17:41.945Z,95978.69
2023-06-19T08:18:47.692Z,95983.63
2023-06-19T08:19:53.895Z,95978.41
2023-06-19T08:21:01.536Z,95980.31
2023-06-19T08:22:07.055Z,95982.97
2023-06-19T08:23:12.121Z,95989.53
2023-06-19T08:24:14.628Z,95986.03
2023-06-19T08:25:19.938Z,95987.13
2023-06-19T08:26:22.418Z,95986.88
2023-06-19T08:27:27.458Z,95992.16
2023-06-19T08:28:32.392Z,95983.81
2023-06-19T08:29:37.703Z,95981.72
2023-06-19T08:30:40.045Z,95988.72
2023-06-19T08:31:45.014Z,95972.38
2023-06-19T08:32:50.981Z,95985.59
2023-06-19T08:33:55.994Z,95983.78
2023-06-19T08:34:58.469Z,95977.34
2023-06-19T08:36:06.613Z,95982.19
2023-06-19T08:37:09.650Z,95985.22
2023-06-19T08:38:14.690Z,95980.38
2023-06-19T08:39:21.694Z,95979.19
2023-06-19T08:40:24.737Z,95972.13
2023-06-19T08:41:30.106Z,95980.16
2023-06-19T08:42:32.290Z,95975.09
2023-06-19T08:43:37.358Z,95977.69
2023-06-19T08:44:42.492Z,95977.97
2023-06-19T08:45:45.275Z,95975.38
2023-06-19T08:46:50.212Z,95977.88
2023-06-19T08:48:03.952Z,95981.34
2023-06-19T08:49:07.745Z,95977.06
2023-06-19T08:50:13.354Z,95982.44
2023-06-19T08:51:18.432Z,95989.63
2023-06-19T08:52:23.497Z,95977.06
2023-06-19T08:53:28.459Z,95976.03
2023-06-19T08:54:33.573Z,95975.88
2023-06-19T08:55:36.879Z,95971.97
2023-06-19T08:56:41.781Z,95990.53
2023-06-19T08:57:44.343Z,95975.19
2023-06-19T08:58:49.486Z,95966.88
2023-06-19T08:59:53.917Z,95974.84
2023-06-19T09:01:03.411Z,95976.72
2023-06-19T09:02:09.188Z,95977.50
2023-06-19T09:03:14.029Z,95971.59
2023-06-19T09:04:20.762Z,95973.50
2023-06-19T09:05:23.347Z,95970.41
2023-06-19T09:06:31.168Z,95978.88
2023-06-19T09:07:33.913Z,95965.34
2023-06-19T09:08:39.209Z,95967.59
2023-06-19T09:09:49.778Z,95963.66
2023-06-19T09:11:05.123Z,95973.59
2023-06-19T09:12:10.969Z,95966.03
2023-06-19T09:13:16.335Z,95974.56
2023-06-19T09:14:18.907Z,95966.22
2023-06-19T09:15:24.968Z,95970.06
2023-06-19T09:16:38.577Z,95979.78
2023-06-19T09:17:43.623Z,95970.28
2023-06-19T09:18:50.033Z,95967.31
2023-06-19T09:19:54.172Z,95966.38
2023-06-19T09:20:59.523Z,95968.03
2023-06-19T09:22:09.448Z,95969.72
2023-06-19T09:23:13.533Z,95966.19
2023-06-19T09:24:18.900Z,95970.72
2023-06-19T09:25:21.930Z,95982.47
2023-06-19T09:26:27.431Z,95962.09
2023-06-19T09:27:34.493Z,95965.31
2023-06-19T09:28:45.025Z,95962.63
2023-06-19T09:29:51.628Z,95959.94
2023-06-19T09:31:01.607Z,95955.34
2023-06-19T09:32:17.641Z,95963.06
2023-06-19T09:33:20.331Z,95958.19
2023-06-19T09:34:25.537Z,95959.47
2023-06-19T09:35:30.586Z,95966.13
2023-06-19T09:36:33.585Z,95966.44
2023-06-19T09:37:43.562Z,95967.69
2023-06-19T09:38:48.182Z,95957.78
2023-06-19T09:39:56.718Z,95965.63
2023-06-19T09:41:02.277Z,95963.38
2023-06-19T09:42:10.596Z,95967.00
2023-06-19T09:43:14.892Z,95966.56
2023-06-19T09:44:24.293Z,95971.44
2023-06-19T09:45:30.591Z,95960.06
2023-06-19T09:46:39.729Z,95966.69
2023-06-19T09:47:49.015Z,95963.38
2023-06-19T09:48:59.924Z,95963.16
2023-06-19T09:50:04.481Z,95960.81
2023-06-19T09:51:16.022Z,95953.03
2023-06-19T09:52:18.358Z,95951.88
2023-06-19T09:53:27.602Z,95947.06
2023-06-19T09:54:33.581Z,95950.69
2023-06-19T09:55:38.826Z,95943.28
2023-06-19T09:56:44.318Z,95950.50
2023-06-19T09:57:47.465Z,95947.41
2023-06-19T09:58:55.449Z,95946.25
2023-06-19T10:00:11.059Z,95943.38
2023-06-19T10:01:19.958Z,95933.09
2023-06-19T10:02:24.056Z,95941.53
2023-06-19T10:03:35.347Z,95944.88
2023-06-19T10:04:46.383Z,95949.41
2023-06-19T10:05:51.714Z,95944.41
2023-06-19T10:06:58.877Z,95946.91
2023-06-19T10:08:02.462Z,95943.28
2023-06-19T10:09:14.759Z,95947.84
2023-06-19T10:10:25.083Z,95950.66
2023-06-19T10:11:31.057Z,95942.44
2023-06-19T10:12:37.929Z,95958.97
2023-06-19T10:13:45.267Z,95952.50
2023-06-19T10:14:49.191Z,95945.13
2023-06-19T10:15:53.943Z,95954.81
2023-06-19T10:16:58.881Z,95941.78
2023-06-19T10:18:04.286Z,95957.06
2023-06-19T10:19:16.079Z,95953.56
2023-06-19T10:20:32.552Z,95956.31
2023-06-19T10:21:49.170Z,95957.69
2023-06-19T10:22:58.507Z,95959.50
2023-06-19T10:24:05.984Z,95951.81
2023-06-19T10:25:22.224Z,95951.66
2023-06-19T10:26:34.380Z,95948.38
2023-06-19T10:27:39.220Z,95950.88
2023-06-19T10:28:51.043Z,95955.44
2023-06-19T10:29:59.594Z,95948.19
2023-06-19T10:31:12.958Z,95946.34
2023-06-19T10:32:15.161Z,95949.25
2023-06-19T10:33:19.925Z,95950.28
2023-06-19T10:34:22.262Z,95944.50
2023-06-19T10:35:27.971Z,95941.59
2023-06-19T10:36:30.152Z,95945.59
2023-06-19T10:37:37.776Z,95940.03
2023-06-19T10:38:42.488Z,95950.72
2023-06-19T10:39:45.374Z,95949.25
2023-06-19T10:40:52.857Z,95946.22
2023-06-19T10:41:55.097Z,95951.25
2023-06-19T10:42:59.948Z,95939.31
2023-06-19T10:44:05.281Z,95944.81
2023-06-19T10:45:13.397Z,95942.41
2023-06-19T10:46:15.721Z,95938.88
2023-06-19T10:47:20.577Z,95949.16
2023-06-19T10:48:27.123Z,95938.56
2023-06-19T10:49:29.578Z,95932.88
2023-06-19T10:50:37.779Z,95937.19
2023-06-19T10:51:41.352Z,95937.47
2023-06-19T10:52:47.225Z,95938.00
2023-06-19T10:53:51.996Z,95942.91
2023-06-19T10:54:58.212Z,95922.94
2023-06-19T10:56:07.418Z,95931.25
2023-06-19T10:57:09.675Z,95940.50
2023-06-19T10:58:14.468Z,95931.72
2023-06-19T10:59:19.818Z,95937.34
2023-06-19T11:00:29.940Z,95931.28
2023-06-19T11:01:36.869Z,95921.53
2023-06-19T11:02:44.986Z,95922.38
2023-06-19T11:03:47.406Z,95920.69
2023-06-19T11:04:52.539Z,95920.44
2023-06-19T11:05:57.341Z,95921.81
2023-06-19T11:07:06.709Z,95931.41
2023-06-19T11:08:11.455Z,95920.47
2023-06-19T11:09:17.420Z,95922.66
2023-06-19T11:10:21.864Z,95928.63
2023-06-19T11:11:38.843Z,95922.09
2023-06-19T11:12:41.063Z,95918.50
2023-06-19T11:13:46.924Z,95925.06
2023-06-19T11:14:52.679Z,95919.63
2023-06-19T11:15:57.450Z,95916.25
2023-06-19T11:16:59.835Z,95917.41
2023-06-19T11:18:06.347Z,95922.81
2023-06-19T11:19:12.176Z,95923.13
2023-06-19T11:20:17.621Z,95911.41
2023-06-19T11:21:19.800Z,95908.09
2023-06-19T11:22:24.608Z,95904.34
2023-06-19T11:23:28.172Z,95917.03
2023-06-19T11:24:33.779Z,95912.31
2023-06-19T11:25:39.880Z,95914.22
2023-06-19T11:26:50.755Z,95911.28
2023-06-19T11:27:55.964Z,95909.50
2023-06-19T11:28:58.082Z,95910.34
2023-06-19T11:30:05.679Z,95906.06
2023-06-19T11:31:08.573Z,95905.66
2023-06-19T11:32:16.363Z,95908.19
2023-06-19T11:33:23.564Z,95903.13
2023-06-19T11:34:37.991Z,95903.19
2023-06-19T11:35:43.084Z,95899.66
2023-06-19T11:36:45.787Z,95902.72
2023-06-19T11:37:50.595Z,95895.56
2023-06-19T11:38:53.142Z,95903.09
2023-06-19T11:40:01.132Z,95894.72
2023-06-19T11:41:06.704Z,95898.09
2023-06-19T11:42:11.837Z,95888.44
2023-06-19T11:43:27.500Z,95891.44
2023-06-19T11:44:32.193Z,95897.00
2023-06-19T11:45:34.351Z,95896.47
2023-06-19T11:46:39.198Z,95894.31
2023-06-19T11:47:44.142Z,95903.25
2023-06-19T11:48:59.449Z,95893.34
2023-06-19T11:50:12.224Z,95901.41
2023-06-19T11:51:14.357Z,95903.56
2023-06-19T11:52:19.477Z,95903.28
2023-06-19T11:53:24.574Z,95917.13
2023-06-19T11:54:26.748Z,95902.59
2023-06-19T11:55:31.436Z,95905.88
2023-06-19T11:56:36.191Z,95902.47
2023-06-19T11:57:44.936Z,95898.44
2023-06-19T11:58:49.836Z,95898.34
2023-06-19T11:59:54.519Z,95894.59
2023-06-19T12:00:57.679Z,95891.78
2023-06-19T12:02:02.516Z,95886.06
2023-06-19T12:03:07.475Z,95892.75
2023-06-19T12:04:09.905Z,95891.44
2023-06-19T12:05:15.586Z,95882.94
2023-06-19T12:06:19.096Z,95885.47
2023-06-19T12:07:23.949Z,95889.94
2023-06-19T12:08:29.078Z,95886.09
2023-06-19T12:09:31.270Z,95884.72
2023-06-19T12:10:36.420Z,95886.28
2023-06-19T12:11:38.557Z,95884.09
2023-06-19T12:12:45.836Z,95880.22
2023-06-19T12:13:48.550Z,95885.75
2023-06-19T12:14:53.289Z,95888.53
2023-06-19T12:15:58.143Z,95887.25
2023-06-19T12:17:00.339Z,95876.22
2023-06-19T12:18:05.356Z,95876.25
2023-06-19T12:19:07.859Z,95876.72
2023-06-19T12:20:14.940Z,95879.31
2023-06-19T12:21:32.828Z,95876.19
2023-06-19T12:22:39.496Z,95876.03
2023-06-19T12:23:41.822Z,95876.75
2023-06-19T12:24:46.582Z,95872.34
2023-06-19T12:25:48.877Z,95872.41
2023-06-19T12:26:53.603Z,95876.69
2023-06-19T12:28:00.917Z,95877.25
2023-06-19T12:29:03.302Z,95880.97
2023-06-19T12:30:09.815Z,95875.81
2023-06-19T12:31:14.573Z,95875.09
2023-06-19T12:32:19.441Z,95869.31
2023-06-19T12:33:22.031Z,95872.19
2023-06-19T12:34:30.995Z,95875.75
2023-06-19T12:35:33.611Z,95876.91
2023-06-19T12:36:38.418Z,95883.78
2023-06-19T12:37:43.311Z,95880.88
2023-06-19T12:38:49.196Z,95872.72
2023-06-19T12:39:54.512Z,95869.50
2023-06-19T12:40:56.645Z,95870.63
2023-06-19T12:42:01.570Z,95866.00
2023-06-19T12:43:06.348Z,95873.88
2023-06-19T12:44:11.104Z,95866.44
2023-06-19T12:45:14.090Z,95881.47